Terminal Aerodrome Forecast
Issued by NWS El Paso, TX

Home | Current Version | Previous Version | Text Only | Print | Product List | Glossary On
Versions: 1 2 3 4 5 6 7 8 9 10 11 12 13 14
947
FTUS44 KEPZ 040209 AAA
TAFELP
TAF AMD
KELP 040209Z 0402/0424 03010KT P6SM VCSH SCT025 BKN035
     FM040400 02008KT P6SM SCT030 BKN050
     FM041900 03008KT P6SM FEW030 SCT050=

USA.gov is the U.S. government's official web portal to all federal, state and local government web resources and services.